createdAt,value
2022-09-06T00:01:17.240Z,71.36
2022-09-06T00:03:46.800Z,71.76
2022-09-06T00:06:18.037Z,71.86
2022-09-06T00:08:48.205Z,72.12
2022-09-06T00:11:18.234Z,72.32
2022-09-06T00:13:47.958Z,72.67
2022-09-06T00:16:20.417Z,72.99
2022-09-06T00:18:48.676Z,73.30
2022-09-06T00:21:21.776Z,73.66
2022-09-06T00:23:50.304Z,74.12
2022-09-06T00:26:18.810Z,74.34
2022-09-06T00:28:47.291Z,74.50
2022-09-06T00:31:22.554Z,74.65
2022-09-06T00:33:51.469Z,75.04
2022-09-06T00:36:21.624Z,75.31
2022-09-06T00:38:49.965Z,75.46
2022-09-06T00:41:18.471Z,75.67
2022-09-06T00:43:46.980Z,75.96
2022-09-06T00:46:27.076Z,76.12
2022-09-06T00:49:06.634Z,76.13
2022-09-06T00:51:36.474Z,76.20
2022-09-06T00:54:07.071Z,76.47
2022-09-06T00:56:41.419Z,76.73
2022-09-06T00:59:09.634Z,76.89
2022-09-06T01:01:38.245Z,77.18
2022-09-06T01:04:06.791Z,77.37
2022-09-06T01:06:45.820Z,77.40
2022-09-06T01:09:34.524Z,77.48
2022-09-06T01:12:21.454Z,77.65
2022-09-06T01:15:31.029Z,77.75
2022-09-06T01:18:05.049Z,77.89
2022-09-06T01:21:00.513Z,78.10
2022-09-06T01:23:47.449Z,78.35
2022-09-06T01:26:23.450Z,78.51
2022-09-06T01:28:54.274Z,78.70
2022-09-06T01:31:59.937Z,78.93
2022-09-06T01:34:38.114Z,79.23
2022-09-06T01:37:12.699Z,79.20
2022-09-06T01:39:42.080Z,79.10
2022-09-06T01:42:16.463Z,79.18
2022-09-06T01:44:54.256Z,79.25
2022-09-06T01:47:28.840Z,79.41
2022-09-06T01:50:22.024Z,79.43
2022-09-06T01:53:00.077Z,79.65
2022-09-06T01:55:39.034Z,79.81
2022-09-06T01:59:09.075Z,79.76
2022-09-06T02:01:49.261Z,80.01
2022-09-06T02:04:32.796Z,80.05
2022-09-06T02:07:05.002Z,80.19
2022-09-06T02:09:41.470Z,80.28
2022-09-06T02:12:15.304Z,80.16
2022-09-06T02:14:53.310Z,79.99
2022-09-06T02:17:28.409Z,80.19
2022-09-06T02:20:10.103Z,80.25
2022-09-06T02:22:49.030Z,80.31
2022-09-06T02:25:32.274Z,80.51
2022-09-06T02:28:00.675Z,80.21
2022-09-06T02:30:29.573Z,80.36
2022-09-06T02:33:02.223Z,80.28
2022-09-06T02:35:30.780Z,80.60
2022-09-06T02:37:59.529Z,80.57
2022-09-06T02:40:27.975Z,80.64
2022-09-06T02:42:56.069Z,80.57
2022-09-06T02:45:24.244Z,80.66
2022-09-06T02:47:52.389Z,80.66
2022-09-06T02:50:20.562Z,80.60
2022-09-06T02:53:10.129Z,80.58
2022-09-06T02:55:39.657Z,80.52
2022-09-06T02:58:11.050Z,80.50
2022-09-06T03:00:39.474Z,80.48
2022-09-06T03:03:08.218Z,80.27
2022-09-06T03:05:36.707Z,80.16
2022-09-06T03:08:04.964Z,80.15
2022-09-06T03:10:33.522Z,80.07
2022-09-06T03:13:02.023Z,79.92
2022-09-06T03:15:30.406Z,79.91
2022-09-06T03:18:00.464Z,80.07
2022-09-06T03:20:28.625Z,80.14
2022-09-06T03:22:56.771Z,80.11
2022-09-06T03:25:26.359Z,80.07
2022-09-06T03:27:56.957Z,79.99
2022-09-06T03:30:25.142Z,79.96
2022-09-06T03:32:54.814Z,79.87
2022-09-06T03:35:22.970Z,79.93
2022-09-06T03:37:51.113Z,80.01
2022-09-06T03:40:19.549Z,79.94
2022-09-06T03:42:47.775Z,79.98
2022-09-06T03:45:16.139Z,79.91
2022-09-06T03:47:44.332Z,79.84
2022-09-06T03:50:12.454Z,79.96
2022-09-06T03:52:40.996Z,79.88
2022-09-06T03:55:09.874Z,79.65
2022-09-06T03:57:38.265Z,79.38
2022-09-06T04:00:07.115Z,79.15
2022-09-06T04:02:35.295Z,79.09
2022-09-06T04:05:03.962Z,79.12
2022-09-06T04:07:32.169Z,79.25
2022-09-06T04:10:00.298Z,79.42
2022-09-06T04:12:29.009Z,79.53
2022-09-06T04:14:57.290Z,79.57
2022-09-06T04:17:25.617Z,79.63
2022-09-06T04:19:53.835Z,79.71
2022-09-06T04:22:22.029Z,79.69
2022-09-06T04:24:50.250Z,79.75
2022-09-06T04:27:18.390Z,79.80
2022-09-06T04:29:46.555Z,79.88
2022-09-06T04:32:14.738Z,79.90
2022-09-06T04:34:42.875Z,79.98
2022-09-06T04:37:11.685Z,79.91
2022-09-06T04:39:39.907Z,79.81
2022-09-06T04:44:35.159Z,79.44
2022-09-06T04:47:10.121Z,79.12
2022-09-06T04:49:38.605Z,78.84
2022-09-06T04:52:06.866Z,78.56
2022-09-06T04:54:35.693Z,78.44
2022-09-06T04:57:04.350Z,78.29
2022-09-06T04:59:33.053Z,78.17
2022-09-06T05:02:01.341Z,77.97
2022-09-06T05:04:29.835Z,78.02
2022-09-06T05:07:15.638Z,77.76
2022-09-06T05:09:43.772Z,75.58
2022-09-06T05:12:12.755Z,71.92
2022-09-06T05:14:41.325Z,68.36
2022-09-06T05:17:09.538Z,64.88
2022-09-06T05:19:37.680Z,62.20
2022-09-06T05:24:51.918Z,58.52
2022-09-06T05:27:19.998Z,56.27
2022-09-06T05:29:48.118Z,54.76
2022-09-06T05:35:02.290Z,51.00
2022-09-06T05:37:30.372Z,48.64
2022-09-06T05:40:00.471Z,47.63
2022-09-06T05:42:28.594Z,46.56
2022-09-06T05:44:56.851Z,46.26
2022-09-06T05:47:25.035Z,45.48
2022-09-06T05:49:54.676Z,44.78
2022-09-06T05:52:22.845Z,43.08
2022-09-06T05:54:51.055Z,42.87
2022-09-06T05:57:19.325Z,42.30
2022-09-06T05:59:47.388Z,41.95
2022-09-06T06:02:15.645Z,42.57
2022-09-06T06:04:44.075Z,41.58
2022-09-06T06:07:12.477Z,40.58
2022-09-06T06:09:42.020Z,40.52
2022-09-06T06:12:10.875Z,40.80
2022-09-06T06:14:38.984Z,40.52
2022-09-06T06:17:07.724Z,41.78
2022-09-06T06:19:36.062Z,42.16
2022-09-06T06:22:04.662Z,42.16
2022-09-06T06:24:33.156Z,41.72
2022-09-06T06:27:01.380Z,42.95
2022-09-06T06:29:29.475Z,42.88
2022-09-06T06:31:57.968Z,42.03
2022-09-06T06:34:26.470Z,42.87
2022-09-06T06:36:54.595Z,43.61
2022-09-06T06:39:22.832Z,44.15
2022-09-06T06:41:51.059Z,44.74
2022-09-06T06:44:19.349Z,44.58
2022-09-06T06:46:47.526Z,44.27
2022-09-06T06:49:15.939Z,44.51
2022-09-06T06:51:44.168Z,44.54
2022-09-06T06:54:12.458Z,44.38
2022-09-06T06:56:41.286Z,44.44
2022-09-06T06:59:09.594Z,44.52
2022-09-06T07:01:38.020Z,45.00
2022-09-06T07:04:08.974Z,45.46
2022-09-06T07:12:31.801Z,44.20
2022-09-06T07:15:00.140Z,43.30
2022-09-06T07:17:28.397Z,43.34
2022-09-06T07:22:41.016Z,42.16
2022-09-06T07:25:13.342Z,42.57
2022-09-06T07:27:47.835Z,41.39
2022-09-06T07:30:20.380Z,41.80
2022-09-06T07:32:48.934Z,40.92
2022-09-06T07:35:17.536Z,39.25
2022-09-06T07:37:55.656Z,38.37
2022-09-06T07:40:25.482Z,37.95
2022-09-06T07:42:56.765Z,37.39
2022-09-06T07:45:26.925Z,36.99
2022-09-06T07:48:01.592Z,36.28
2022-09-06T07:50:48.057Z,35.69
2022-09-06T07:53:24.526Z,35.46
2022-09-06T07:55:58.671Z,35.39
2022-09-06T07:58:28.286Z,35.58
2022-09-06T08:01:30.576Z,35.16
2022-09-06T08:04:04.766Z,34.41
2022-09-06T08:09:25.411Z,34.94
2022-09-06T08:11:53.884Z,35.28
2022-09-06T08:14:22.011Z,34.14
2022-09-06T08:16:50.707Z,34.18
2022-09-06T08:19:18.878Z,34.74
2022-09-06T08:21:47.015Z,34.12
2022-09-06T08:24:15.075Z,33.54
2022-09-06T08:26:43.427Z,32.77
2022-09-06T08:29:14.097Z,30.80
2022-09-06T08:31:44.190Z,31.39
2022-09-06T08:34:14.421Z,29.47
2022-09-06T08:36:44.497Z,29.47
2022-09-06T08:39:13.079Z,29.23
2022-09-06T08:41:47.287Z,28.83
2022-09-06T08:47:19.566Z,28.55
2022-09-06T08:49:57.412Z,28.73
2022-09-06T08:53:13.195Z,27.78
2022-09-06T08:56:19.195Z,26.78
2022-09-06T08:59:25.831Z,27.67
2022-09-06T09:02:09.022Z,27.16
2022-09-06T09:04:43.024Z,26.00
2022-09-06T09:08:00.560Z,26.56
2022-09-06T09:10:47.169Z,25.83
2022-09-06T09:13:30.654Z,24.98
2022-09-06T09:15:59.604Z,25.27
2022-09-06T09:18:33.734Z,26.03
2022-09-06T09:21:01.954Z,26.02
2022-09-06T09:23:31.904Z,25.23
2022-09-06T09:26:04.974Z,25.47
2022-09-06T09:28:33.568Z,24.37
2022-09-06T09:31:01.870Z,25.05
2022-09-06T09:33:35.360Z,25.30
2022-09-06T09:36:11.343Z,23.77
2022-09-06T09:38:52.390Z,24.68
2022-09-06T09:41:33.908Z,24.58
2022-09-06T09:44:09.445Z,23.74
2022-09-06T09:46:40.101Z,23.41
2022-09-06T09:49:29.460Z,22.54
2022-09-06T09:52:07.099Z,22.43
2022-09-06T09:54:41.448Z,20.92
2022-09-06T09:57:12.336Z,22.54
2022-09-06T09:59:48.254Z,21.42
2022-09-06T10:02:25.085Z,21.92
2022-09-06T10:05:01.909Z,22.98
2022-09-06T10:07:37.145Z,21.98
2022-09-06T10:10:12.945Z,21.79
2022-09-06T10:12:43.077Z,21.55
2022-09-06T10:15:31.727Z,21.45
2022-09-06T10:18:00.178Z,21.37
2022-09-06T10:20:54.754Z,21.56
2022-09-06T10:26:48.855Z,21.07
2022-09-06T10:29:33.919Z,21.01
2022-09-06T10:32:13.809Z,20.95
2022-09-06T10:35:08.143Z,20.59
2022-09-06T10:37:48.650Z,20.39
2022-09-06T10:40:34.099Z,19.29
2022-09-06T10:43:05.165Z,19.76
2022-09-06T10:45:42.148Z,19.22
2022-09-06T10:48:19.140Z,18.23
2022-09-06T10:50:55.645Z,19.12
2022-09-06T10:54:07.943Z,18.27
2022-09-06T10:56:53.594Z,17.32
2022-09-06T11:02:06.213Z,17.07
2022-09-06T11:10:45.701Z,15.95
2022-09-06T11:13:20.832Z,16.32
2022-09-06T11:16:22.653Z,16.86
2022-09-06T11:18:55.985Z,18.57
2022-09-06T11:21:49.471Z,19.37
2022-09-06T11:24:46.084Z,20.11
2022-09-06T11:27:16.881Z,20.84
2022-09-06T11:29:52.286Z,19.95
2022-09-06T11:32:49.233Z,19.26
2022-09-06T11:35:37.401Z,17.44
2022-09-06T11:38:16.585Z,17.53
2022-09-06T11:41:13.563Z,17.17
2022-09-06T11:43:50.577Z,16.97
2022-09-06T11:46:33.919Z,16.69
2022-09-06T11:49:03.115Z,16.28
2022-09-06T11:51:53.325Z,16.03
2022-09-06T11:54:24.471Z,16.26
2022-09-06T11:57:03.467Z,16.84
2022-09-06T11:59:34.567Z,15.92
2022-09-06T12:02:28.286Z,15.90
2022-09-06T12:05:00.399Z,15.93
2022-09-06T12:07:49.994Z,15.26
2022-09-06T12:10:30.559Z,14.65
2022-09-06T12:12:59.229Z,14.20
2022-09-06T12:15:43.988Z,14.29
2022-09-06T12:18:41.741Z,14.69
2022-09-06T12:21:31.355Z,14.71
2022-09-06T12:24:00.213Z,15.96
2022-09-06T12:27:16.301Z,15.98
2022-09-06T12:29:59.705Z,15.60
2022-09-06T12:32:49.834Z,16.08
2022-09-06T12:38:16.335Z,16.85
2022-09-06T12:40:48.407Z,16.23
2022-09-06T12:43:26.161Z,16.51
2022-09-06T12:45:54.487Z,17.01
2022-09-06T12:48:31.358Z,17.26
2022-09-06T12:51:20.625Z,17.14
2022-09-06T12:53:53.675Z,18.03
2022-09-06T12:56:24.407Z,17.70
2022-09-06T12:58:52.925Z,17.64
2022-09-06T13:01:33.498Z,17.36
2022-09-06T13:04:10.753Z,16.99
2022-09-06T13:06:46.091Z,16.41
2022-09-06T13:09:19.444Z,16.34
2022-09-06T13:11:51.787Z,16.36
2022-09-06T13:14:29.874Z,16.41
2022-09-06T13:16:58.457Z,16.31
2022-09-06T13:19:39.989Z,16.90
2022-09-06T13:22:11.358Z,17.97
2022-09-06T13:24:47.653Z,18.66
2022-09-06T13:27:31.107Z,18.58
2022-09-06T13:30:03.414Z,18.23
2022-09-06T13:32:32.094Z,18.33
2022-09-06T13:35:00.810Z,17.83
2022-09-06T13:37:34.120Z,18.30
2022-09-06T13:40:06.455Z,17.49
2022-09-06T13:42:39.172Z,17.32
2022-09-06T13:45:23.515Z,17.76
2022-09-06T13:47:59.942Z,17.67
2022-09-06T13:50:41.963Z,16.88
2022-09-06T13:53:10.830Z,15.61
2022-09-06T13:55:40.610Z,15.42
2022-09-06T13:58:09.209Z,15.26
2022-09-06T14:00:41.942Z,14.72
2022-09-06T14:03:19.578Z,14.76
2022-09-06T14:05:48.240Z,13.92
2022-09-06T14:08:16.779Z,14.22
2022-09-06T14:10:48.354Z,14.53
2022-09-06T14:13:18.758Z,15.08
2022-09-06T14:15:49.154Z,14.40
2022-09-06T14:18:17.908Z,14.48
2022-09-06T14:20:52.929Z,15.00
2022-09-06T14:23:21.265Z,15.17
2022-09-06T14:25:50.567Z,14.77
2022-09-06T14:28:18.710Z,14.07
2022-09-06T14:30:47.131Z,13.18
2022-09-06T14:33:15.380Z,12.94
2022-09-06T14:35:43.612Z,12.56
2022-09-06T14:38:11.836Z,12.69
2022-09-06T14:40:44.416Z,13.23
2022-09-06T14:43:12.649Z,13.03
2022-09-06T14:45:40.835Z,12.87
2022-09-06T14:48:09.638Z,12.88
2022-09-06T14:50:37.825Z,12.95
2022-09-06T14:53:24.133Z,13.16
2022-09-06T14:56:02.177Z,13.36
2022-09-06T14:58:32.451Z,13.14
2022-09-06T15:01:37.147Z,13.35
2022-09-06T15:04:09.481Z,13.54
2022-09-06T15:06:41.335Z,14.14
2022-09-06T15:09:12.123Z,14.33
2022-09-06T15:11:48.632Z,14.48
2022-09-06T15:14:23.818Z,14.50
2022-09-06T15:16:56.471Z,14.43
2022-09-06T15:19:27.414Z,14.62
2022-09-06T15:21:57.438Z,14.75
2022-09-06T15:24:26.256Z,14.96
2022-09-06T15:26:55.095Z,15.13
2022-09-06T15:29:23.455Z,15.23
2022-09-06T15:31:52.083Z,15.30
2022-09-06T15:34:21.902Z,14.98
2022-09-06T15:36:51.355Z,15.59
2022-09-06T15:39:20.397Z,15.66
2022-09-06T15:41:50.456Z,16.47
2022-09-06T15:44:23.885Z,16.37
2022-09-06T15:46:59.793Z,17.06
2022-09-06T15:49:32.556Z,17.02
2022-09-06T15:52:02.992Z,17.25
2022-09-06T15:54:50.085Z,17.38
2022-09-06T15:57:18.241Z,17.20
2022-09-06T15:59:46.796Z,17.58
2022-09-06T16:02:15.138Z,17.72
2022-09-06T16:04:43.370Z,18.74
2022-09-06T16:07:11.913Z,19.41
2022-09-06T16:09:40.557Z,19.62
2022-09-06T16:12:09.393Z,19.66
2022-09-06T16:14:37.975Z,19.87
2022-09-06T16:17:06.265Z,20.44
2022-09-06T16:19:34.617Z,20.72
2022-09-06T16:22:02.831Z,21.20
2022-09-06T16:24:31.155Z,21.88
2022-09-06T16:26:59.317Z,23.64
2022-09-06T16:29:27.545Z,24.60
2022-09-06T16:31:59.997Z,25.54
2022-09-06T16:34:28.914Z,26.17
2022-09-06T16:36:57.506Z,27.70
2022-09-06T16:39:26.210Z,28.72
2022-09-06T16:41:54.616Z,29.80
2022-09-06T16:44:22.842Z,30.73
2022-09-06T16:46:50.944Z,30.99
2022-09-06T16:49:20.034Z,31.73
2022-09-06T16:51:50.572Z,33.30
2022-09-06T16:54:19.820Z,35.03
2022-09-06T16:56:48.242Z,35.44
2022-09-06T16:59:17.426Z,35.92
2022-09-06T17:01:46.340Z,37.81
2022-09-06T17:04:15.223Z,38.35
2022-09-06T17:06:47.131Z,39.33
2022-09-06T17:09:19.990Z,40.23
2022-09-06T17:11:51.294Z,40.78
2022-09-06T17:14:19.616Z,40.92
2022-09-06T17:17:06.268Z,41.53
2022-09-06T17:19:41.470Z,42.32
2022-09-06T17:22:13.385Z,42.80
2022-09-06T17:24:42.186Z,43.04
2022-09-06T17:27:10.544Z,43.54
2022-09-06T17:29:40.269Z,43.64
2022-09-06T17:32:10.702Z,44.33
2022-09-06T17:34:41.564Z,45.30
2022-09-06T17:37:09.999Z,45.69
2022-09-06T17:39:38.600Z,46.52
2022-09-06T17:42:07.374Z,47.05
2022-09-06T17:44:36.335Z,47.41
2022-09-06T17:47:13.322Z,47.33
2022-09-06T17:49:43.889Z,47.85
2022-09-06T17:52:12.117Z,48.43
2022-09-06T17:54:40.569Z,48.73
2022-09-06T17:57:08.733Z,48.78
2022-09-06T17:59:36.890Z,49.70
2022-09-06T18:02:05.439Z,49.47
2022-09-06T18:04:34.356Z,50.11
2022-09-06T18:07:02.516Z,50.20
2022-09-06T18:09:30.830Z,50.67
2022-09-06T18:11:59.263Z,50.91
2022-09-06T18:14:28.895Z,51.40
2022-09-06T18:16:57.345Z,51.20
2022-09-06T18:19:27.656Z,51.71
2022-09-06T18:21:57.564Z,52.13
2022-09-06T18:24:25.982Z,52.23
2022-09-06T18:26:54.094Z,52.60
2022-09-06T18:29:22.568Z,52.82
2022-09-06T18:31:53.860Z,53.16
2022-09-06T18:34:22.260Z,53.02
2022-09-06T18:36:50.762Z,53.57
2022-09-06T18:39:21.272Z,53.77
2022-09-06T18:42:01.561Z,53.78
2022-09-06T18:44:33.326Z,54.17
2022-09-06T18:47:03.533Z,54.27
2022-09-06T18:49:34.141Z,54.83
2022-09-06T18:52:04.324Z,55.10
2022-09-06T18:54:33.204Z,55.08
2022-09-06T18:57:01.365Z,55.20
2022-09-06T18:59:29.575Z,55.08
2022-09-06T19:01:57.948Z,55.50
2022-09-06T19:04:26.513Z,55.27
2022-09-06T19:06:54.969Z,55.48
2022-09-06T19:09:23.488Z,56.58
2022-09-06T19:11:53.330Z,57.33
2022-09-06T19:14:22.121Z,57.30
2022-09-06T19:16:51.926Z,57.22
2022-09-06T19:19:22.309Z,57.92
2022-09-06T19:21:50.857Z,57.78
2022-09-06T19:24:22.817Z,57.47
2022-09-06T19:26:51.618Z,57.69
2022-09-06T19:29:20.130Z,57.82
2022-09-06T19:31:49.840Z,58.16
2022-09-06T19:34:18.538Z,58.12
2022-09-06T19:36:46.686Z,58.07
2022-09-06T19:39:16.647Z,57.91
2022-09-06T19:41:47.284Z,58.03
2022-09-06T19:44:17.229Z,58.20
2022-09-06T19:46:47.466Z,58.45
2022-09-06T19:49:23.455Z,58.69
2022-09-06T19:51:53.297Z,59.05
2022-09-06T19:54:21.277Z,59.42
2022-09-06T19:56:49.598Z,59.00
2022-09-06T19:59:18.013Z,59.22
2022-09-06T20:01:46.806Z,59.32
2022-09-06T20:04:16.031Z,59.11
2022-09-06T20:06:44.735Z,59.17
2022-09-06T20:09:13.692Z,59.53
2022-09-06T20:11:42.944Z,59.44
2022-09-06T20:14:12.156Z,59.59
2022-09-06T20:16:42.437Z,59.90
2022-09-06T20:19:14.858Z,60.12
2022-09-06T20:21:43.320Z,60.24
2022-09-06T20:24:11.389Z,59.94
2022-09-06T20:26:40.598Z,59.87
2022-09-06T20:29:08.894Z,59.80
2022-09-06T20:31:38.035Z,60.12
2022-09-06T20:34:07.249Z,60.49
2022-09-06T20:36:35.585Z,60.72
2022-09-06T20:39:04.376Z,60.80
2022-09-06T20:41:34.499Z,61.29
2022-09-06T20:44:03.049Z,61.03
2022-09-06T20:46:35.411Z,61.33
2022-09-06T20:49:05.665Z,61.57
2022-09-06T20:51:36.525Z,61.73
2022-09-06T20:54:05.696Z,61.94
2022-09-06T20:56:40.256Z,62.27
2022-09-06T20:59:11.237Z,62.40
2022-09-06T21:01:43.054Z,62.72
2022-09-06T21:04:13.909Z,63.04
2022-09-06T21:06:42.430Z,63.07
2022-09-06T21:09:13.492Z,63.26
2022-09-06T21:11:42.043Z,63.36
2022-09-06T21:14:10.638Z,63.79
2022-09-06T21:16:40.970Z,63.76
2022-09-06T21:19:10.848Z,63.43
2022-09-06T21:21:39.987Z,63.53
2022-09-06T21:24:10.104Z,63.47
2022-09-06T21:26:38.749Z,63.74
2022-09-06T21:29:06.905Z,64.23
2022-09-06T21:31:37.498Z,64.85
2022-09-06T21:34:16.362Z,64.68
2022-09-06T21:36:45.568Z,64.82
2022-09-06T21:39:14.419Z,65.12
2022-09-06T21:41:44.500Z,65.11
2022-09-06T21:44:13.379Z,65.26
2022-09-06T21:46:42.310Z,65.50
2022-09-06T21:49:12.893Z,65.86
2022-09-06T21:51:42.286Z,65.85
2022-09-06T21:54:11.052Z,65.82
2022-09-06T21:56:39.815Z,65.54
2022-09-06T21:59:08.669Z,65.41
2022-09-06T22:01:38.747Z,64.46
2022-09-06T22:04:07.395Z,63.62
2022-09-06T22:06:36.108Z,64.94
2022-09-06T22:09:11.391Z,65.82
2022-09-06T22:11:42.222Z,65.86
2022-09-06T22:14:12.935Z,66.24
2022-09-06T22:16:41.836Z,66.48
2022-09-06T22:19:10.988Z,66.54
2022-09-06T22:21:39.119Z,66.10
2022-09-06T22:24:11.573Z,66.28
2022-09-06T22:26:41.106Z,66.41
2022-09-06T22:29:11.246Z,66.86
2022-09-06T22:31:39.623Z,67.14
2022-09-06T22:34:08.848Z,67.23
2022-09-06T22:36:37.015Z,67.23
2022-09-06T22:39:05.293Z,67.00
2022-09-06T22:41:34.292Z,67.29
2022-09-06T22:44:04.013Z,67.34
2022-09-06T22:46:32.755Z,67.28
2022-09-06T22:49:02.409Z,67.49
2022-09-06T22:51:30.532Z,67.80
2022-09-06T22:53:58.671Z,67.55
2022-09-06T22:56:26.826Z,67.62
2022-09-06T22:58:54.951Z,67.72
2022-09-06T23:01:23.295Z,67.79
2022-09-06T23:03:51.909Z,67.81
2022-09-06T23:06:20.039Z,67.86
2022-09-06T23:08:48.597Z,67.83
2022-09-06T23:11:19.495Z,67.95
2022-09-06T23:13:47.651Z,68.50
2022-09-06T23:16:18.897Z,68.48
2022-09-06T23:18:47.895Z,68.47
2022-09-06T23:21:21.994Z,68.61
2022-09-06T23:23:52.378Z,68.92
2022-09-06T23:26:24.477Z,69.01
2022-09-06T23:29:00.810Z,69.19
2022-09-06T23:31:32.921Z,69.31
2022-09-06T23:34:02.118Z,69.62
2022-09-06T23:36:30.773Z,69.84
2022-09-06T23:38:59.294Z,69.90
2022-09-06T23:41:27.938Z,70.06
2022-09-06T23:43:56.185Z,70.37
2022-09-06T23:46:24.405Z,70.49
2022-09-06T23:48:52.555Z,70.78
2022-09-06T23:51:20.631Z,71.25
2022-09-06T23:53:48.757Z,71.57
2022-09-06T23:56:17.295Z,71.64
2022-09-06T23:58:45.434Z,71.70
